Time;durP1;ratioP1;P1;durP2;ratioP2;P2;SDS_P1;SDS_P2;PMS_P1;PMS_P2;Temp;Humidity;BMP_temperature;BMP_pressure;BME280_temperature;BME280_humidity;BME280_pressure;Samples;Min_cycle;Max_cycle;Signal;HPM_P1;HPM_P2
2022/09/27 00:04:31;;;;;;;2.60;2.37;;;11.00;99.90;;;;;;10467798;28;20707;-74
2022/09/27 00:09:32;;;;;;;4.10;2.60;;;11.00;99.90;;;;;;10478398;28;20701;-76
2022/09/27 00:14:33;;;;;;;2.77;2.20;;;11.10;99.90;;;;;;10474057;28;20310;-74
2022/09/27 00:19:33;;;;;;;2.80;2.20;;;11.10;99.90;;;;;;10463219;28;20604;-76
2022/09/27 00:24:34;;;;;;;4.87;2.30;;;11.10;99.90;;;;;;10473039;28;20216;-75
2022/09/27 00:29:36;;;;;;;3.73;2.00;;;11.10;99.90;;;;;;10480731;28;20234;-76
2022/09/27 00:34:37;;;;;;;2.40;1.73;;;11.10;99.90;;;;;;10473329;28;20219;-76
2022/09/27 00:39:38;;;;;;;1.97;1.50;;;11.10;99.90;;;;;;10472646;28;20224;-77
2022/09/27 00:44:39;;;;;;;2.67;1.63;;;11.10;99.90;;;;;;10480224;28;20263;-76
2022/09/27 00:49:54;;;;;;;2.27;1.60;;;11.10;99.90;;;;;;10482993;28;20353;-74
2022/09/27 00:55:03;;;;;;;2.23;1.57;;;11.10;99.90;;;;;;10473561;28;20439;-75
2022/09/27 01:00:24;;;;;;;1.70;1.60;;;11.00;99.90;;;;;;10474622;28;20237;-73
2022/09/27 01:05:27;;;;;;;2.13;1.70;;;11.10;99.90;;;;;;10463516;28;20222;-73
2022/09/27 01:10:37;;;;;;;1.63;1.50;;;11.10;99.90;;;;;;10471525;28;20216;-72
2022/09/27 01:16:16;;;;;;;1.93;1.43;;;11.10;99.90;;;;;;10470749;28;20299;-71
2022/09/27 01:21:44;;;;;;;1.50;1.40;;;11.10;99.90;;;;;;10433560;28;20215;-71
2022/09/27 01:27:03;;;;;;;3.80;1.73;;;11.10;99.90;;;;;;10472485;28;20261;-72
2022/09/27 01:32:12;;;;;;;6.40;1.87;;;11.10;99.90;;;;;;10460224;28;20305;-71
2022/09/27 01:38:00;;;;;;;1.53;1.40;;;11.10;99.90;;;;;;10460447;28;20706;-73
2022/09/27 01:43:26;;;;;;;1.63;1.40;;;11.10;99.90;;;;;;10469204;28;20211;-72
2022/09/27 01:48:43;;;;;;;4.00;1.73;;;11.00;99.90;;;;;;10470619;28;20579;-74
2022/09/27 01:53:47;;;;;;;1.50;1.40;;;11.10;99.90;;;;;;10460193;28;20686;-72
2022/09/27 01:58:55;;;;;;;1.83;1.53;;;11.00;99.90;;;;;;10470050;28;20226;-72
2022/09/27 02:03:59;;;;;;;2.13;1.30;;;11.10;99.90;;;;;;10470882;28;20216;-71
2022/09/27 02:09:17;;;;;;;4.43;1.70;;;11.10;99.90;;;;;;10463739;28;20596;-72
2022/09/27 02:14:23;;;;;;;6.57;1.90;;;11.10;99.90;;;;;;10463506;28;20225;-71
2022/09/27 02:19:47;;;;;;;5.00;1.53;;;11.10;99.90;;;;;;10464003;28;20713;-72
2022/09/27 02:24:57;;;;;;;3.50;1.53;;;11.10;99.90;;;;;;10469047;28;20208;-73
2022/09/27 02:30:13;;;;;;;3.53;1.60;;;11.10;99.90;;;;;;10472036;28;20377;-72
2022/09/27 02:35:13;;;;;;;4.07;1.80;;;11.10;99.90;;;;;;10471696;28;20308;-73
2022/09/27 02:40:15;;;;;;;1.93;1.40;;;11.00;99.90;;;;;;10470142;28;20685;-72
2022/09/27 02:45:17;;;;;;;1.33;1.23;;;11.10;99.90;;;;;;10480964;28;20274;-72
2022/09/27 02:50:27;;;;;;;2.17;1.60;;;11.10;99.90;;;;;;10472007;28;20183;-71
2022/09/27 02:56:02;;;;;;;3.77;2.00;;;11.10;99.90;;;;;;10467318;28;20220;-71
2022/09/27 03:01:11;;;;;;;3.83;1.50;;;11.10;99.90;;;;;;10451979;28;20602;-72
2022/09/27 03:06:16;;;;;;;3.87;1.50;;;11.10;99.90;;;;;;10474497;28;20235;-71
2022/09/27 03:11:20;;;;;;;3.20;1.43;;;11.00;99.90;;;;;;10471745;28;20215;-71
2022/09/27 03:16:20;;;;;;;2.43;1.30;;;11.00;99.90;;;;;;10465404;28;20235;-71
2022/09/27 03:21:21;;;;;;;4.87;1.63;;;11.10;99.90;;;;;;10459059;28;20833;-72
2022/09/27 03:26:21;;;;;;;4.43;1.30;;;11.10;99.90;;;;;;10479641;28;20215;-72
2022/09/27 03:31:22;;;;;;;6.63;1.43;;;11.10;99.90;;;;;;10479726;28;20219;-72
2022/09/27 03:36:23;;;;;;;1.90;1.00;;;11.10;99.90;;;;;;10463522;28;20219;-72
2022/09/27 03:41:23;;;;;;;3.10;1.20;;;11.00;99.90;;;;;;10456359;28;20952;-72
2022/09/27 03:46:25;;;;;;;2.23;0.87;;;11.00;99.90;;;;;;10473362;28;20215;-72
2022/09/27 03:51:26;;;;;;;1.00;0.90;;;11.00;99.90;;;;;;10466612;28;20255;-71
2022/09/27 03:56:27;;;;;;;2.03;1.10;;;10.90;99.90;;;;;;10467703;28;20222;-71
2022/09/27 04:01:27;;;;;;;3.63;1.43;;;10.90;99.90;;;;;;10475183;28;20223;-71
2022/09/27 04:06:28;;;;;;;4.50;0.70;;;10.90;99.90;;;;;;10465743;28;20211;-72
2022/09/27 04:11:29;;;;;;;3.50;0.57;;;10.90;99.90;;;;;;10474600;28;20218;-73
2022/09/27 04:16:31;;;;;;;0.40;0.40;;;10.90;99.90;;;;;;10464234;28;20314;-69
2022/09/27 04:21:32;;;;;;;1.97;0.60;;;10.80;99.90;;;;;;10471177;28;20212;-69
2022/09/27 04:26:32;;;;;;;1.43;0.30;;;10.70;99.90;;;;;;10462977;28;20254;-70
2022/09/27 04:31:33;;;;;;;2.17;0.70;;;10.60;99.90;;;;;;10471497;28;20304;-69
2022/09/27 04:36:33;;;;;;;2.67;0.40;;;10.60;99.90;;;;;;10459942;28;20302;-70
2022/09/27 04:41:35;;;;;;;2.73;0.60;;;10.60;99.90;;;;;;10458731;28;20307;-68
2022/09/27 04:46:35;;;;;;;0.63;0.60;;;10.60;99.90;;;;;;10463680;28;20266;-70
2022/09/27 04:51:36;;;;;;;3.17;0.63;;;10.60;99.90;;;;;;10471020;28;20214;-72
2022/09/27 04:56:37;;;;;;;1.83;0.73;;;10.60;99.90;;;;;;10470108;28;20220;-72
2022/09/27 05:01:37;;;;;;;0.87;0.60;;;10.50;99.90;;;;;;10468951;28;20709;-72
2022/09/27 05:06:38;;;;;;;0.87;0.70;;;10.50;99.90;;;;;;10474308;28;20219;-73
2022/09/27 05:11:38;;;;;;;1.57;1.10;;;10.50;99.90;;;;;;10478117;28;20611;-75
2022/09/27 05:16:39;;;;;;;3.70;1.10;;;10.50;99.90;;;;;;10468212;28;20636;-72
2022/09/27 05:21:40;;;;;;;3.93;0.90;;;10.50;99.90;;;;;;10473348;28;20225;-72
2022/09/27 05:26:40;;;;;;;1.27;1.00;;;10.50;99.90;;;;;;10477873;28;20275;-71
2022/09/27 05:31:41;;;;;;;3.40;0.90;;;10.50;99.90;;;;;;10472874;28;20229;-72
2022/09/27 05:36:45;;;;;;;2.00;0.70;;;10.50;99.90;;;;;;10468870;28;20854;-72
2022/09/27 05:41:49;;;;;;;1.50;0.60;;;10.50;99.90;;;;;;10482174;28;20234;-73
2022/09/27 05:46:49;;;;;;;2.20;0.90;;;10.50;99.90;;;;;;10469975;28;20571;-71
2022/09/27 05:51:50;;;;;;;1.57;0.90;;;10.50;99.90;;;;;;10474824;28;20233;-72
2022/09/27 05:56:59;;;;;;;3.00;0.70;;;10.50;99.90;;;;;;10460357;28;20238;-73
2022/09/27 06:02:00;;;;;;;1.90;0.80;;;10.60;99.90;;;;;;10455513;28;20691;-71
2022/09/27 06:07:01;;;;;;;2.03;0.60;;;10.70;99.90;;;;;;10470628;28;20233;-72
2022/09/27 06:12:02;;;;;;;2.10;0.87;;;10.80;99.90;;;;;;10474904;28;20250;-72
2022/09/27 06:17:03;;;;;;;2.30;0.80;;;10.90;99.90;;;;;;10471813;28;20286;-71
2022/09/27 06:22:04;;;;;;;0.83;0.60;;;11.20;99.90;;;;;;10472705;28;20238;-73
2022/09/27 06:27:04;;;;;;;1.17;1.00;;;11.40;99.90;;;;;;10470979;28;20232;-72
2022/09/27 06:32:05;;;;;;;2.90;0.60;;;11.40;99.90;;;;;;10458779;28;20234;-72
2022/09/27 06:37:06;;;;;;;3.80;0.50;;;11.40;99.90;;;;;;10470610;28;20235;-72
2022/09/27 06:42:09;;;;;;;1.23;0.40;;;11.40;99.90;;;;;;10466509;28;20209;-73
2022/09/27 06:47:10;;;;;;;1.90;0.40;;;11.40;99.90;;;;;;10469376;28;20935;-72
2022/09/27 06:52:11;;;;;;;0.50;0.40;;;11.40;99.90;;;;;;10460172;28;20233;-72
2022/09/27 07:00:22;;;;;;;2.47;0.67;;;11.40;99.90;;;;;;10468935;28;20649;-72
2022/09/27 07:02:38;;;;;;;0.57;0.37;;;11.50;99.90;;;;;;10472559;28;20238;-73
2022/09/27 07:07:39;;;;;;;2.73;0.40;;;11.60;99.90;;;;;;10464884;28;20292;-72
2022/09/27 07:12:40;;;;;;;0.57;0.43;;;11.80;99.90;;;;;;10475950;28;20216;-72
2022/09/27 07:17:41;;;;;;;1.27;0.50;;;11.70;99.90;;;;;;10471224;28;20736;-73
2022/09/27 07:22:44;;;;;;;1.67;0.30;;;11.70;99.90;;;;;;10464979;28;20250;-72
2022/09/27 07:27:44;;;;;;;1.00;0.60;;;11.50;99.90;;;;;;10481570;28;20230;-71
2022/09/27 07:32:45;;;;;;;0.87;0.40;;;11.50;99.90;;;;;;10456741;28;20237;-73
2022/09/27 07:37:46;;;;;;;3.23;0.77;;;11.70;99.90;;;;;;10485244;28;20227;-72
2022/09/27 07:42:46;;;;;;;1.90;0.60;;;12.20;99.90;;;;;;10465908;28;20216;-73
2022/09/27 07:47:47;;;;;;;0.90;0.70;;;13.50;99.90;;;;;;10456814;28;20307;-72
2022/09/27 07:52:50;;;;;;;1.30;0.77;;;14.10;99.90;;;;;;10462678;28;20721;-71
2022/09/27 07:58:02;;;;;;;1.43;0.43;;;14.00;99.90;;;;;;10464739;28;20878;-71
2022/09/27 08:03:07;;;;;;;0.67;0.40;;;13.80;99.90;;;;;;10457913;28;20698;-72
2022/09/27 08:08:08;;;;;;;2.90;0.73;;;13.90;99.90;;;;;;10458601;28;20225;-72
2022/09/27 08:13:09;;;;;;;4.37;0.40;;;14.00;99.90;;;;;;10467830;28;20219;-73
2022/09/27 08:18:10;;;;;;;1.33;0.47;;;13.80;99.90;;;;;;10461578;28;20756;-72
2022/09/27 08:23:11;;;;;;;0.93;0.30;;;14.10;99.90;;;;;;10461866;28;20296;-73
2022/09/27 08:28:11;;;;;;;1.27;0.47;;;14.60;99.90;;;;;;10475258;28;20243;-73
2022/09/27 08:33:12;;;;;;;0.53;0.40;;;15.10;99.90;;;;;;10476230;28;20296;-71
2022/09/27 08:38:16;;;;;;;0.50;0.40;;;16.50;99.90;;;;;;10479345;28;20276;-72
2022/09/27 08:43:41;;;;;;;3.10;0.50;;;19.80;99.90;;;;;;10474659;28;20272;-72
2022/09/27 08:48:50;;;;;;;1.10;0.30;;;19.90;99.20;;;;;;10471047;28;20220;-73
2022/09/27 08:54:07;;;;;;;0.27;0.20;;;20.80;97.80;;;;;;10467594;28;20214;-72
2022/09/27 08:59:07;;;;;;;1.60;0.80;;;24.70;79.00;;;;;;10474877;28;20709;-73
2022/09/27 09:04:10;;;;;;;0.70;0.30;;;23.40;68.90;;;;;;10473725;28;20223;-72
2022/09/27 09:09:42;;;;;;;0.50;0.40;;;21.70;78.80;;;;;;10483982;28;20765;-72
2022/09/27 09:15:07;;;;;;;1.80;0.30;;;22.90;73.80;;;;;;10470091;28;20231;-73
2022/09/27 09:20:18;;;;;;;3.03;0.50;;;22.30;74.00;;;;;;10465730;28;20224;-72
2022/09/27 09:25:33;;;;;;;0.80;0.43;;;24.10;70.40;;;;;;10475136;28;20242;-72
2022/09/27 09:30:55;;;;;;;1.20;0.50;;;25.00;62.70;;;;;;10467492;28;20319;-73
2022/09/27 09:36:05;;;;;;;3.10;0.40;;;23.50;68.60;;;;;;10480788;28;20257;-72
2022/09/27 09:41:10;;;;;;;2.90;0.37;;;22.90;67.90;;;;;;10478788;28;20652;-73
2022/09/27 09:46:26;;;;;;;0.87;0.40;;;20.50;74.60;;;;;;10472997;28;20829;-72
2022/09/27 09:51:34;;;;;;;0.53;0.50;;;18.80;83.30;;;;;;10469604;28;20222;-73
2022/09/27 09:56:47;;;;;;;0.93;0.37;;;17.60;90.00;;;;;;10466003;28;20239;-72
2022/09/27 10:01:48;;;;;;;2.40;0.40;;;16.70;93.40;;;;;;10468762;28;20284;-72
2022/09/27 10:06:50;;;;;;;3.13;0.50;;;15.60;99.90;;;;;;10481953;28;20279;-71
2022/09/27 10:11:51;;;;;;;0.60;0.50;;;15.10;99.90;;;;;;10458386;28;20700;-72
2022/09/27 10:16:56;;;;;;;1.90;0.60;;;14.90;99.90;;;;;;10475997;28;20231;-72
2022/09/27 10:22:17;;;;;;;2.00;0.60;;;14.80;99.90;;;;;;10472454;28;20219;-72
2022/09/27 10:27:17;;;;;;;0.70;0.40;;;15.10;99.90;;;;;;10471163;28;20257;-73
2022/09/27 10:32:24;;;;;;;1.57;0.40;;;15.40;99.90;;;;;;10459147;28;20254;-72
2022/09/27 10:37:24;;;;;;;0.73;0.30;;;15.90;99.90;;;;;;10462609;28;20265;-72
2022/09/27 10:42:35;;;;;;;0.40;0.20;;;18.50;99.90;;;;;;10467635;28;20243;-72
2022/09/27 10:47:39;;;;;;;0.30;0.30;;;22.70;96.30;;;;;;10474081;28;20230;-72
2022/09/27 10:52:41;;;;;;;2.23;0.40;;;22.50;86.80;;;;;;10467161;28;20222;-71
2022/09/27 10:57:49;;;;;;;2.20;0.40;;;22.10;87.90;;;;;;10471159;28;20264;-72
2022/09/27 11:02:56;;;;;;;0.60;0.30;;;21.80;87.00;;;;;;10467309;28;20639;-72
2022/09/27 11:08:01;;;;;;;2.23;0.50;;;20.30;86.70;;;;;;10461490;28;20233;-72
2022/09/27 11:13:17;;;;;;;0.53;0.20;;;18.70;91.20;;;;;;10467505;28;21012;-72
2022/09/27 11:18:27;;;;;;;1.30;0.40;;;18.30;92.70;;;;;;10469564;28;20624;-72
2022/09/27 11:24:15;;;;;;;1.27;0.40;;;19.00;91.00;;;;;;10456387;28;20217;-73
2022/09/27 11:29:43;;;;;;;0.97;0.60;;;19.30;89.60;;;;;;10420915;28;20674;-71
2022/09/27 11:35:17;;;;;;;0.97;0.60;;;19.10;90.00;;;;;;10462826;28;20734;-72
2022/09/27 11:40:52;;;;;;;2.40;1.47;;;18.80;90.60;;;;;;10465978;28;20232;-71
2022/09/27 11:46:17;;;;;;;1.00;0.83;;;18.30;90.70;;;;;;10476705;28;20594;-71
2022/09/27 11:51:36;;;;;;;1.63;0.57;;;18.20;90.60;;;;;;10471061;28;20219;-72
2022/09/27 11:56:53;;;;;;;1.30;0.57;;;18.50;90.50;;;;;;10464269;28;20255;-73
2022/09/27 12:02:12;;;;;;;3.70;0.73;;;19.00;89.70;;;;;;10473832;28;20232;-71
2022/09/27 12:07:43;;;;;;;0.87;0.43;;;19.10;90.20;;;;;;10468350;28;20226;-72
2022/09/27 12:12:50;;;;;;;3.13;0.70;;;18.70;89.90;;;;;;10457463;28;20221;-71
2022/09/27 12:18:01;;;;;;;3.83;1.10;;;18.30;90.70;;;;;;10469376;28;20289;-72
2022/09/27 12:23:12;;;;;;;2.27;0.93;;;18.00;91.40;;;;;;10455121;28;20269;-72
2022/09/27 12:28:40;;;;;;;3.43;0.90;;;18.00;93.20;;;;;;10457109;28;20656;-72
2022/09/27 12:34:10;;;;;;;3.33;0.70;;;17.80;93.40;;;;;;10464286;28;20228;-72
2022/09/27 12:39:17;;;;;;;1.77;0.70;;;17.50;94.30;;;;;;10471725;28;20223;-72
2022/09/27 12:44:18;;;;;;;2.10;0.80;;;17.30;94.70;;;;;;10457096;28;20322;-71
2022/09/27 12:49:40;;;;;;;1.93;0.90;;;17.20;96.10;;;;;;10461187;28;20365;-72
2022/09/27 12:55:07;;;;;;;3.43;1.00;;;17.20;95.80;;;;;;10446229;28;20223;-72
2022/09/27 13:00:11;;;;;;;0.80;0.63;;;17.10;95.00;;;;;;10468067;28;20232;-71
2022/09/27 13:05:21;;;;;;;2.00;0.60;;;16.70;93.50;;;;;;10467694;28;20196;-72
2022/09/27 13:10:33;;;;;;;2.33;0.90;;;16.40;94.10;;;;;;10463743;28;20180;-71
2022/09/27 13:15:38;;;;;;;2.47;0.73;;;16.40;95.40;;;;;;10465911;28;20291;-72
2022/09/27 13:20:47;;;;;;;1.27;0.60;;;15.90;96.40;;;;;;10471186;28;20232;-73
2022/09/27 13:25:58;;;;;;;1.83;0.60;;;15.20;99.90;;;;;;10476694;28;20802;-72
2022/09/27 13:31:09;;;;;;;3.17;0.60;;;14.40;99.90;;;;;;10470299;28;20273;-72
2022/09/27 13:36:22;;;;;;;0.40;0.40;;;14.10;99.90;;;;;;10493075;28;20272;-71
2022/09/27 13:41:22;;;;;;;1.47;0.50;;;13.80;99.90;;;;;;10462607;28;20293;-71
2022/09/27 13:46:25;;;;;;;1.30;0.50;;;13.90;99.90;;;;;;10475828;28;20219;-71
2022/09/27 13:51:50;;;;;;;1.33;0.60;;;14.20;99.90;;;;;;10480825;28;20701;-71
2022/09/27 13:56:53;;;;;;;1.37;0.47;;;14.30;99.90;;;;;;10469489;28;20231;-72
2022/09/27 14:02:30;;;;;;;1.13;0.40;;;14.50;99.90;;;;;;10474372;28;20708;-72
2022/09/27 14:07:39;;;;;;;0.73;0.47;;;14.60;99.90;;;;;;10479534;28;20585;-71
2022/09/27 14:12:41;;;;;;;1.17;0.50;;;14.70;99.90;;;;;;10467778;28;20246;-72
2022/09/27 14:17:45;;;;;;;0.83;0.63;;;14.80;99.90;;;;;;10465673;28;20227;-71
2022/09/27 14:22:53;;;;;;;0.67;0.67;;;14.90;99.90;;;;;;10458292;28;20258;-72
2022/09/27 14:27:54;;;;;;;2.07;0.70;;;15.00;99.90;;;;;;10476943;28;20679;-72
2022/09/27 14:33:00;;;;;;;0.97;0.60;;;15.20;99.90;;;;;;10473012;28;20223;-71
2022/09/27 14:38:07;;;;;;;0.57;0.43;;;15.20;99.90;;;;;;10469441;28;20236;-74
2022/09/27 14:43:15;;;;;;;0.70;0.37;;;15.30;99.90;;;;;;10476058;28;20717;-72
2022/09/27 14:48:31;;;;;;;1.60;0.80;;;15.30;99.90;;;;;;10469256;28;20828;-72
2022/09/27 14:53:34;;;;;;;2.10;0.60;;;15.20;99.90;;;;;;10462983;28;20227;-73
2022/09/27 14:58:40;;;;;;;0.47;0.47;;;15.00;99.90;;;;;;10465542;28;20297;-72
2022/09/27 15:03:43;;;;;;;1.87;0.73;;;15.00;99.90;;;;;;10464666;28;20239;-71
2022/09/27 15:08:48;;;;;;;5.30;0.83;;;14.90;99.90;;;;;;10462751;28;20231;-70
2022/09/27 15:13:51;;;;;;;1.67;0.90;;;14.90;99.90;;;;;;10465489;28;20312;-72
2022/09/27 15:19:12;;;;;;;3.00;1.00;;;14.70;99.90;;;;;;10470306;28;20314;-73
2022/09/27 15:24:35;;;;;;;1.40;0.90;;;14.30;99.90;;;;;;10459266;28;20230;-71
2022/09/27 15:29:35;;;;;;;1.43;0.70;;;13.70;99.90;;;;;;10480908;28;20230;-73
2022/09/27 15:34:36;;;;;;;1.90;0.70;;;13.10;99.90;;;;;;10472217;28;20714;-73
2022/09/27 15:39:39;;;;;;;3.90;0.90;;;12.70;99.90;;;;;;10471453;28;20241;-71
2022/09/27 15:44:51;;;;;;;1.37;0.83;;;12.20;99.90;;;;;;10464845;28;20223;-72
2022/09/27 15:49:52;;;;;;;1.40;0.87;;;12.10;99.90;;;;;;10448818;28;20216;-73
2022/09/27 15:54:53;;;;;;;2.67;1.30;;;12.10;99.90;;;;;;10470227;28;20222;-71
2022/09/27 15:59:53;;;;;;;2.30;1.33;;;12.00;99.90;;;;;;10474413;28;20690;-73
2022/09/27 16:04:54;;;;;;;2.40;1.07;;;12.00;99.90;;;;;;10454692;28;20718;-72
2022/09/27 16:09:54;;;;;;;3.70;1.30;;;12.00;99.90;;;;;;10465744;28;20836;-72
2022/09/27 16:14:55;;;;;;;2.23;1.13;;;11.90;99.90;;;;;;10475678;28;20561;-72
2022/09/27 16:19:57;;;;;;;1.53;0.70;;;12.00;99.90;;;;;;10456989;28;20230;-71
2022/09/27 16:24:57;;;;;;;2.27;1.40;;;12.10;99.90;;;;;;10469659;28;20211;-72
2022/09/27 16:29:58;;;;;;;3.87;1.33;;;12.00;99.90;;;;;;10475119;28;20211;-72
2022/09/27 16:35:02;;;;;;;3.83;1.00;;;12.00;99.90;;;;;;10469088;28;20310;-73
2022/09/27 16:40:05;;;;;;;1.43;0.93;;;12.00;99.90;;;;;;10484043;28;20223;-75
2022/09/27 16:45:07;;;;;;;2.90;1.50;;;12.00;99.90;;;;;;10463520;28;20211;-72
2022/09/27 16:55:30;;;;;;;2.67;1.17;;;11.90;99.90;;;;;;10476208;28;20232;-73
2022/09/27 17:00:32;;;;;;;2.63;1.20;;;11.80;99.90;;;;;;10481425;28;20940;-73
2022/09/27 17:05:32;;;;;;;2.57;1.13;;;11.80;99.90;;;;;;10479616;28;20243;-72
2022/09/27 17:10:34;;;;;;;2.10;1.37;;;11.80;99.90;;;;;;10478461;28;20224;-73
2022/09/27 17:15:38;;;;;;;1.83;1.50;;;11.70;99.90;;;;;;10476277;28;20235;-73
2022/09/27 17:20:39;;;;;;;1.27;0.77;;;11.70;99.90;;;;;;10460082;28;20246;-74
2022/09/27 17:25:41;;;;;;;5.10;1.40;;;11.60;99.90;;;;;;10468151;28;20224;-74
2022/09/27 17:30:43;;;;;;;2.50;1.20;;;11.60;99.90;;;;;;10478686;28;20241;-74
2022/09/27 17:35:45;;;;;;;4.77;0.90;;;11.50;99.90;;;;;;10461778;28;20223;-75
2022/09/27 17:40:46;;;;;;;4.30;1.73;;;11.50;99.90;;;;;;10466780;28;20223;-74
2022/09/27 17:45:46;;;;;;;1.93;1.30;;;11.40;99.90;;;;;;10472488;28;20705;-73
2022/09/27 17:50:47;;;;;;;1.43;1.20;;;11.40;99.90;;;;;;10475982;28;20220;-73
2022/09/27 17:55:48;;;;;;;1.80;1.33;;;11.30;99.90;;;;;;10471123;28;20226;-73
2022/09/27 18:00:49;;;;;;;2.43;1.50;;;11.30;99.90;;;;;;10462614;28;20231;-71
2022/09/27 18:05:49;;;;;;;6.40;1.30;;;11.30;99.90;;;;;;10469648;28;20227;-72
2022/09/27 18:10:50;;;;;;;1.67;1.17;;;11.30;99.90;;;;;;10477879;28;20302;-72
2022/09/27 18:15:58;;;;;;;1.43;1.10;;;11.30;99.90;;;;;;10469809;28;20271;-71
2022/09/27 18:21:02;;;;;;;2.73;1.30;;;11.30;99.90;;;;;;10463598;28;20748;-72
2022/09/27 18:26:07;;;;;;;1.23;0.87;;;11.30;99.90;;;;;;10470738;28;20216;-70
2022/09/27 18:31:14;;;;;;;2.07;1.30;;;11.30;99.90;;;;;;10450655;28;20307;-72
2022/09/27 18:36:18;;;;;;;1.87;1.00;;;11.20;99.90;;;;;;10467288;28;20239;-73
2022/09/27 18:41:20;;;;;;;2.20;1.10;;;11.20;99.90;;;;;;10473576;28;20227;-72
2022/09/27 18:46:21;;;;;;;2.70;1.03;;;11.20;99.90;;;;;;10475027;28;20207;-73
2022/09/27 18:51:25;;;;;;;1.27;0.87;;;11.20;99.90;;;;;;10471612;28;20224;-73
2022/09/27 18:56:29;;;;;;;3.40;1.20;;;11.10;99.90;;;;;;10459876;28;20294;-74
2022/09/27 19:01:32;;;;;;;1.47;1.37;;;11.10;99.90;;;;;;10469477;28;20222;-73
2022/09/27 19:06:33;;;;;;;3.23;1.17;;;11.10;99.90;;;;;;10459255;28;20294;-72
2022/09/27 19:11:37;;;;;;;2.63;1.27;;;11.00;99.90;;;;;;10472562;28;20228;-73
2022/09/27 19:16:38;;;;;;;4.23;1.17;;;10.90;99.90;;;;;;10466229;28;20215;-72
2022/09/27 19:21:39;;;;;;;2.07;0.90;;;10.70;99.90;;;;;;10463900;28;20742;-72
2022/09/27 19:26:40;;;;;;;4.00;1.40;;;10.50;99.90;;;;;;10476036;28;20210;-73
2022/09/27 19:31:41;;;;;;;2.90;1.10;;;10.30;99.90;;;;;;10481351;28;20230;-73
2022/09/27 19:36:41;;;;;;;2.27;1.50;;;10.10;99.90;;;;;;10470953;28;20214;-72
2022/09/27 19:41:42;;;;;;;4.43;1.73;;;9.90;99.90;;;;;;10457262;28;20225;-72
2022/09/27 19:46:44;;;;;;;2.40;1.70;;;9.80;99.90;;;;;;10475382;28;20218;-73
2022/09/27 19:51:44;;;;;;;1.83;1.40;;;9.70;99.90;;;;;;10466511;28;20223;-72
2022/09/27 19:56:45;;;;;;;3.60;1.67;;;9.60;99.90;;;;;;10483480;28;20211;-73
2022/09/27 20:01:46;;;;;;;2.43;1.60;;;9.50;99.90;;;;;;10461134;28;20737;-73
2022/09/27 20:06:47;;;;;;;2.23;1.90;;;9.40;99.90;;;;;;10476014;28;20232;-71
2022/09/27 20:11:47;;;;;;;3.07;1.67;;;9.40;99.90;;;;;;10467119;28;20224;-72
2022/09/27 20:16:49;;;;;;;2.63;1.70;;;9.40;99.90;;;;;;10477198;28;20221;-74
2022/09/27 20:21:50;;;;;;;4.57;1.60;;;9.40;99.90;;;;;;10460125;28;20228;-71
2022/09/27 20:26:51;;;;;;;2.20;1.90;;;9.40;99.90;;;;;;10485383;28;20334;-73
2022/09/27 20:31:51;;;;;;;1.87;1.63;;;9.30;99.90;;;;;;10484514;28;20705;-73
2022/09/27 20:36:52;;;;;;;3.20;1.43;;;9.30;99.90;;;;;;10493165;28;20762;-72
2022/09/27 20:41:53;;;;;;;5.53;2.20;;;9.30;99.90;;;;;;10477986;28;20210;-73
2022/09/27 20:46:53;;;;;;;3.97;2.10;;;9.30;99.90;;;;;;10480340;28;20225;-72
2022/09/27 20:51:54;;;;;;;3.83;2.20;;;9.30;99.90;;;;;;10485815;28;20221;-74
2022/09/27 20:56:55;;;;;;;3.67;2.17;;;9.30;99.90;;;;;;10473773;28;20652;-73
2022/09/27 21:01:55;;;;;;;4.10;2.60;;;9.20;99.90;;;;;;10487499;28;20223;-73
2022/09/27 21:06:57;;;;;;;6.70;2.60;;;9.20;99.90;;;;;;10491215;28;20920;-73
2022/09/27 21:11:58;;;;;;;4.20;2.23;;;9.10;99.90;;;;;;10488747;28;20266;-73
2022/09/27 21:16:58;;;;;;;3.20;2.40;;;9.20;99.90;;;;;;10476948;28;20731;-73
2022/09/27 21:22:02;;;;;;;3.07;2.20;;;9.20;99.90;;;;;;10487830;28;20210;-72
2022/09/27 21:27:03;;;;;;;4.43;2.20;;;9.30;99.90;;;;;;10486094;28;20710;-75
2022/09/27 21:32:04;;;;;;;7.50;2.33;;;9.20;99.90;;;;;;10491286;28;20353;-74
2022/09/27 21:37:05;;;;;;;4.87;2.20;;;9.30;99.90;;;;;;10489027;28;20305;-73
2022/09/27 21:42:07;;;;;;;3.00;2.00;;;9.30;99.90;;;;;;10486326;28;20223;-74
2022/09/27 21:47:07;;;;;;;6.63;2.20;;;9.40;99.90;;;;;;10492835;28;20214;-72
2022/09/27 21:52:08;;;;;;;4.57;1.60;;;9.40;99.90;;;;;;10471593;28;20236;-73
2022/09/27 21:57:08;;;;;;;4.57;1.60;;;9.50;99.90;;;;;;10488232;28;20231;-72
2022/09/27 22:02:09;;;;;;;3.13;2.10;;;9.60;99.90;;;;;;10487723;28;20215;-72
2022/09/27 22:07:09;;;;;;;3.23;1.77;;;9.70;99.90;;;;;;10470655;28;20219;-72
2022/09/27 22:12:10;;;;;;;3.83;1.40;;;9.80;99.90;;;;;;10487233;28;20218;-72
2022/09/27 22:17:11;;;;;;;5.90;2.30;;;9.80;99.90;;;;;;10467435;28;20229;-72
2022/09/27 22:22:11;;;;;;;2.93;1.77;;;9.80;99.90;;;;;;10476886;28;20226;-72
2022/09/27 22:27:12;;;;;;;4.70;1.60;;;9.80;99.90;;;;;;10474587;28;20242;-72
2022/09/27 22:32:13;;;;;;;6.30;2.07;;;9.90;99.90;;;;;;10487445;28;20293;-73
2022/09/27 22:37:13;;;;;;;4.33;1.43;;;9.90;99.90;;;;;;10501813;28;20229;-72
2022/09/27 22:42:14;;;;;;;5.23;1.20;;;9.90;99.90;;;;;;10488585;28;20744;-72
2022/09/27 22:47:15;;;;;;;4.57;2.10;;;9.80;99.90;;;;;;10468016;28;20246;-71
2022/09/27 22:52:16;;;;;;;2.43;1.30;;;9.90;99.90;;;;;;10482647;28;20219;-73
2022/09/27 22:57:17;;;;;;;3.97;1.50;;;9.90;99.90;;;;;;10478529;28;20268;-70
2022/09/27 23:02:18;;;;;;;5.03;1.53;;;9.90;99.90;;;;;;10488155;28;20219;-71
2022/09/27 23:07:21;;;;;;;3.97;1.80;;;9.80;99.90;;;;;;10482826;28;20295;-72
2022/09/27 23:12:22;;;;;;;2.30;1.30;;;9.80;99.90;;;;;;10482941;28;20701;-71
2022/09/27 23:17:22;;;;;;;3.93;1.67;;;9.80;99.90;;;;;;10470056;28;20236;-72
2022/09/27 23:22:23;;;;;;;2.87;1.50;;;9.80;99.90;;;;;;10458034;28;20263;-72
2022/09/27 23:32:45;;;;;;;7.60;1.67;;;9.80;99.90;;;;;;10483310;28;20221;-73
2022/09/27 23:37:46;;;;;;;4.27;1.70;;;9.80;99.90;;;;;;10467022;28;20224;-72
2022/09/27 23:42:46;;;;;;;3.53;1.73;;;9.70;99.90;;;;;;10485069;28;20221;-73
2022/09/27 23:47:47;;;;;;;4.10;2.00;;;9.60;99.90;;;;;;10467672;28;20217;-73
2022/09/27 23:52:48;;;;;;;9.03;2.70;;;9.60;99.90;;;;;;10478813;28;20231;-72
2022/09/27 23:57:49;;;;;;;5.30;2.47;;;9.50;99.90;;;;;;10472208;28;20229;-72
